sensor_id;sensor_type;location;lat;lon;timestamp;P1;durP1;ratioP1;P2;durP2;ratioP2
59054;SDS011;44845;51.444;7.460;2022-11-20T00:02:20;19.40;;;11.98;;
59054;SDS011;44845;51.444;7.460;2022-11-20T00:04:45;20.17;;;12.00;;
59054;SDS011;44845;51.444;7.460;2022-11-20T00:07:11;17.92;;;10.65;;
59054;SDS011;44845;51.444;7.460;2022-11-20T00:09:36;17.27;;;11.32;;
59054;SDS011;44845;51.444;7.460;2022-11-20T00:12:01;20.27;;;11.50;;
59054;SDS011;44845;51.444;7.460;2022-11-20T00:14:27;20.55;;;12.13;;
59054;SDS011;44845;51.444;7.460;2022-11-20T00:16:52;19.63;;;11.13;;
59054;SDS011;44845;51.444;7.460;2022-11-20T00:19:18;20.38;;;12.02;;
59054;SDS011;44845;51.444;7.460;2022-11-20T00:21:43;23.40;;;12.10;;
59054;SDS011;44845;51.444;7.460;2022-11-20T00:24:09;18.65;;;11.52;;
59054;SDS011;44845;51.444;7.460;2022-11-20T00:26:35;19.30;;;11.38;;
59054;SDS011;44845;51.444;7.460;2022-11-20T00:29:01;22.08;;;11.85;;
59054;SDS011;44845;51.444;7.460;2022-11-20T00:31:27;19.55;;;11.77;;
59054;SDS011;44845;51.444;7.460;2022-11-20T00:33:53;19.17;;;11.07;;
59054;SDS011;44845;51.444;7.460;2022-11-20T00:36:19;17.67;;;11.23;;
59054;SDS011;44845;51.444;7.460;2022-11-20T00:38:53;15.82;;;10.90;;
59054;SDS011;44845;51.444;7.460;2022-11-20T00:41:19;18.17;;;11.63;;
59054;SDS011;44845;51.444;7.460;2022-11-20T00:43:45;17.45;;;11.15;;
59054;SDS011;44845;51.444;7.460;2022-11-20T00:46:12;16.67;;;10.52;;
59054;SDS011;44845;51.444;7.460;2022-11-20T00:48:39;16.27;;;11.13;;
59054;SDS011;44845;51.444;7.460;2022-11-20T00:51:04;17.70;;;11.30;;
59054;SDS011;44845;51.444;7.460;2022-11-20T00:53:30;18.23;;;10.93;;
59054;SDS011;44845;51.444;7.460;2022-11-20T00:55:57;17.95;;;11.40;;
59054;SDS011;44845;51.444;7.460;2022-11-20T00:58:24;16.58;;;10.63;;
59054;SDS011;44845;51.444;7.460;2022-11-20T01:00:50;16.90;;;11.15;;
59054;SDS011;44845;51.444;7.460;2022-11-20T01:03:16;18.63;;;11.82;;
59054;SDS011;44845;51.444;7.460;2022-11-20T01:05:42;18.23;;;11.50;;
59054;SDS011;44845;51.444;7.460;2022-11-20T01:08:08;17.83;;;10.95;;
59054;SDS011;44845;51.444;7.460;2022-11-20T01:10:33;18.50;;;11.93;;
59054;SDS011;44845;51.444;7.460;2022-11-20T01:12:58;18.67;;;11.13;;
59054;SDS011;44845;51.444;7.460;2022-11-20T01:15:42;18.45;;;10.77;;
59054;SDS011;44845;51.444;7.460;2022-11-20T01:18:08;15.98;;;10.02;;
59054;SDS011;44845;51.444;7.460;2022-11-20T01:20:34;15.77;;;10.00;;
59054;SDS011;44845;51.444;7.460;2022-11-20T01:23:00;19.10;;;11.50;;
59054;SDS011;44845;51.444;7.460;2022-11-20T01:25:26;16.35;;;10.23;;
59054;SDS011;44845;51.444;7.460;2022-11-20T01:27:51;18.17;;;10.68;;
59054;SDS011;44845;51.444;7.460;2022-11-20T01:30:17;20.75;;;12.45;;
59054;SDS011;44845;51.444;7.460;2022-11-20T01:32:42;20.17;;;12.23;;
59054;SDS011;44845;51.444;7.460;2022-11-20T01:35:07;20.63;;;12.05;;
59054;SDS011;44845;51.444;7.460;2022-11-20T01:37:34;19.35;;;11.68;;
59054;SDS011;44845;51.444;7.460;2022-11-20T01:40:00;22.52;;;13.45;;
59054;SDS011;44845;51.444;7.460;2022-11-20T01:42:27;23.00;;;12.25;;
59054;SDS011;44845;51.444;7.460;2022-11-20T01:47:55;19.30;;;10.48;;
59054;SDS011;44845;51.444;7.460;2022-11-20T01:50:24;15.52;;;9.65;;
59054;SDS011;44845;51.444;7.460;2022-11-20T01:53:04;16.40;;;10.20;;
59054;SDS011;44845;51.444;7.460;2022-11-20T01:55:36;15.88;;;9.95;;
59054;SDS011;44845;51.444;7.460;2022-11-20T01:58:06;16.60;;;9.98;;
59054;SDS011;44845;51.444;7.460;2022-11-20T02:00:31;18.60;;;11.38;;
59054;SDS011;44845;51.444;7.460;2022-11-20T02:02:58;16.15;;;9.88;;
59054;SDS011;44845;51.444;7.460;2022-11-20T02:08:23;13.95;;;9.10;;
59054;SDS011;44845;51.444;7.460;2022-11-20T02:10:48;14.25;;;9.63;;
59054;SDS011;44845;51.444;7.460;2022-11-20T02:13:13;14.75;;;9.75;;
59054;SDS011;44845;51.444;7.460;2022-11-20T02:15:58;15.95;;;10.07;;
59054;SDS011;44845;51.444;7.460;2022-11-20T02:18:23;15.85;;;9.63;;
59054;SDS011;44845;51.444;7.460;2022-11-20T02:20:53;15.02;;;10.07;;
59054;SDS011;44845;51.444;7.460;2022-11-20T02:23:34;16.27;;;10.02;;
59054;SDS011;44845;51.444;7.460;2022-11-20T02:26:06;15.85;;;9.90;;
59054;SDS011;44845;51.444;7.460;2022-11-20T02:28:36;15.55;;;9.80;;
59054;SDS011;44845;51.444;7.460;2022-11-20T02:31:01;13.70;;;9.25;;
59054;SDS011;44845;51.444;7.460;2022-11-20T02:33:27;13.95;;;9.07;;
59054;SDS011;44845;51.444;7.460;2022-11-20T02:35:52;16.77;;;9.70;;
59054;SDS011;44845;51.444;7.460;2022-11-20T02:38:17;14.63;;;9.55;;
59054;SDS011;44845;51.444;7.460;2022-11-20T02:40:43;14.85;;;9.65;;
59054;SDS011;44845;51.444;7.460;2022-11-20T02:43:09;15.63;;;9.90;;
59054;SDS011;44845;51.444;7.460;2022-11-20T02:45:34;13.63;;;9.32;;
59054;SDS011;44845;51.444;7.460;2022-11-20T02:48:00;15.13;;;9.55;;
59054;SDS011;44845;51.444;7.460;2022-11-20T02:50:25;14.40;;;9.10;;
59054;SDS011;44845;51.444;7.460;2022-11-20T02:52:51;14.02;;;9.60;;
59054;SDS011;44845;51.444;7.460;2022-11-20T02:55:16;14.57;;;9.15;;
59054;SDS011;44845;51.444;7.460;2022-11-20T02:57:42;14.85;;;9.30;;
59054;SDS011;44845;51.444;7.460;2022-11-20T03:00:07;14.45;;;9.15;;
59054;SDS011;44845;51.444;7.460;2022-11-20T03:02:33;13.40;;;8.63;;
59054;SDS011;44845;51.444;7.460;2022-11-20T03:04:58;14.05;;;9.20;;
59054;SDS011;44845;51.444;7.460;2022-11-20T03:07:24;13.35;;;8.80;;
59054;SDS011;44845;51.444;7.460;2022-11-20T03:09:49;14.00;;;8.30;;
59054;SDS011;44845;51.444;7.460;2022-11-20T03:12:14;14.07;;;9.30;;
59054;SDS011;44845;51.444;7.460;2022-11-20T03:14:40;12.95;;;8.30;;
59054;SDS011;44845;51.444;7.460;2022-11-20T03:17:05;13.32;;;8.25;;
59054;SDS011;44845;51.444;7.460;2022-11-20T03:19:31;10.85;;;7.30;;
59054;SDS011;44845;51.444;7.460;2022-11-20T03:21:56;12.38;;;7.95;;
59054;SDS011;44845;51.444;7.460;2022-11-20T03:24:21;11.25;;;7.25;;
59054;SDS011;44845;51.444;7.460;2022-11-20T03:26:47;10.05;;;6.80;;
59054;SDS011;44845;51.444;7.460;2022-11-20T03:29:12;8.93;;;6.30;;
59054;SDS011;44845;51.444;7.460;2022-11-20T03:31:38;9.90;;;6.55;;
59054;SDS011;44845;51.444;7.460;2022-11-20T03:34:05;10.48;;;7.25;;
59054;SDS011;44845;51.444;7.460;2022-11-20T03:36:31;8.95;;;6.18;;
59054;SDS011;44845;51.444;7.460;2022-11-20T03:38:57;10.35;;;7.10;;
59054;SDS011;44845;51.444;7.460;2022-11-20T03:41:24;11.20;;;7.57;;
59054;SDS011;44845;51.444;7.460;2022-11-20T03:43:51;12.45;;;7.53;;
59054;SDS011;44845;51.444;7.460;2022-11-20T03:46:19;10.38;;;7.13;;
59054;SDS011;44845;51.444;7.460;2022-11-20T03:48:45;10.02;;;7.30;;
59054;SDS011;44845;51.444;7.460;2022-11-20T03:51:12;11.05;;;7.50;;
59054;SDS011;44845;51.444;7.460;2022-11-20T03:53:42;11.32;;;7.25;;
59054;SDS011;44845;51.444;7.460;2022-11-20T03:56:10;10.80;;;6.95;;
59054;SDS011;44845;51.444;7.460;2022-11-20T03:58:37;9.57;;;7.22;;
59054;SDS011;44845;51.444;7.460;2022-11-20T04:01:07;11.55;;;7.28;;
59054;SDS011;44845;51.444;7.460;2022-11-20T04:03:37;9.95;;;6.63;;
59054;SDS011;44845;51.444;7.460;2022-11-20T04:06:05;10.48;;;6.57;;
59054;SDS011;44845;51.444;7.460;2022-11-20T04:08:32;9.05;;;5.95;;
59054;SDS011;44845;51.444;7.460;2022-11-20T04:11:19;9.63;;;5.93;;
59054;SDS011;44845;51.444;7.460;2022-11-20T04:13:48;9.00;;;5.93;;
59054;SDS011;44845;51.444;7.460;2022-11-20T04:16:15;8.32;;;5.70;;
59054;SDS011;44845;51.444;7.460;2022-11-20T04:18:41;10.05;;;6.72;;
59054;SDS011;44845;51.444;7.460;2022-11-20T04:21:07;10.45;;;6.65;;
59054;SDS011;44845;51.444;7.460;2022-11-20T04:23:32;9.43;;;6.72;;
59054;SDS011;44845;51.444;7.460;2022-11-20T04:26:02;10.38;;;7.22;;
59054;SDS011;44845;51.444;7.460;2022-11-20T04:28:28;10.88;;;7.03;;
59054;SDS011;44845;51.444;7.460;2022-11-20T04:30:53;10.77;;;7.10;;
59054;SDS011;44845;51.444;7.460;2022-11-20T04:33:19;10.18;;;6.75;;
59054;SDS011;44845;51.444;7.460;2022-11-20T04:35:44;11.43;;;7.60;;
59054;SDS011;44845;51.444;7.460;2022-11-20T04:38:12;11.80;;;8.00;;
59054;SDS011;44845;51.444;7.460;2022-11-20T04:40:38;12.60;;;7.95;;
59054;SDS011;44845;51.444;7.460;2022-11-20T04:43:03;10.25;;;7.05;;
59054;SDS011;44845;51.444;7.460;2022-11-20T04:45:28;10.32;;;7.30;;
59054;SDS011;44845;51.444;7.460;2022-11-20T04:47:54;10.70;;;7.57;;
59054;SDS011;44845;51.444;7.460;2022-11-20T04:50:19;11.48;;;7.28;;
59054;SDS011;44845;51.444;7.460;2022-11-20T04:52:44;10.93;;;7.60;;
59054;SDS011;44845;51.444;7.460;2022-11-20T04:55:10;9.82;;;7.15;;
59054;SDS011;44845;51.444;7.460;2022-11-20T04:57:35;10.18;;;7.20;;
59054;SDS011;44845;51.444;7.460;2022-11-20T05:00:00;9.70;;;6.90;;
59054;SDS011;44845;51.444;7.460;2022-11-20T05:02:26;10.30;;;7.20;;
59054;SDS011;44845;51.444;7.460;2022-11-20T05:04:51;10.32;;;6.35;;
59054;SDS011;44845;51.444;7.460;2022-11-20T05:07:16;10.30;;;6.97;;
59054;SDS011;44845;51.444;7.460;2022-11-20T05:09:42;11.07;;;7.47;;
59054;SDS011;44845;51.444;7.460;2022-11-20T05:12:08;10.85;;;7.70;;
59054;SDS011;44845;51.444;7.460;2022-11-20T05:14:34;11.18;;;7.15;;
59054;SDS011;44845;51.444;7.460;2022-11-20T05:16:59;10.52;;;7.28;;
59054;SDS011;44845;51.444;7.460;2022-11-20T05:19:25;9.93;;;6.68;;
59054;SDS011;44845;51.444;7.460;2022-11-20T05:21:50;9.27;;;6.60;;
59054;SDS011;44845;51.444;7.460;2022-11-20T05:24:15;9.95;;;7.13;;
59054;SDS011;44845;51.444;7.460;2022-11-20T05:26:41;10.30;;;6.28;;
59054;SDS011;44845;51.444;7.460;2022-11-20T05:29:09;11.45;;;7.38;;
59054;SDS011;44845;51.444;7.460;2022-11-20T05:31:35;10.05;;;6.50;;
59054;SDS011;44845;51.444;7.460;2022-11-20T05:34:02;10.80;;;6.75;;
59054;SDS011;44845;51.444;7.460;2022-11-20T05:36:27;10.57;;;6.80;;
59054;SDS011;44845;51.444;7.460;2022-11-20T05:38:52;10.10;;;6.32;;
59054;SDS011;44845;51.444;7.460;2022-11-20T05:41:19;8.73;;;6.15;;
59054;SDS011;44845;51.444;7.460;2022-11-20T05:43:45;9.48;;;7.10;;
59054;SDS011;44845;51.444;7.460;2022-11-20T05:46:13;9.00;;;6.47;;
59054;SDS011;44845;51.444;7.460;2022-11-20T05:48:41;9.82;;;5.90;;
59054;SDS011;44845;51.444;7.460;2022-11-20T05:51:09;8.73;;;6.25;;
59054;SDS011;44845;51.444;7.460;2022-11-20T05:53:35;10.40;;;6.75;;
59054;SDS011;44845;51.444;7.460;2022-11-20T05:56:05;8.98;;;6.07;;
59054;SDS011;44845;51.444;7.460;2022-11-20T05:58:32;13.00;;;7.28;;
59054;SDS011;44845;51.444;7.460;2022-11-20T06:01:08;10.18;;;6.75;;
59054;SDS011;44845;51.444;7.460;2022-11-20T06:03:38;10.80;;;7.45;;
59054;SDS011;44845;51.444;7.460;2022-11-20T06:06:05;12.60;;;7.82;;
59054;SDS011;44845;51.444;7.460;2022-11-20T06:08:31;12.40;;;7.60;;
59054;SDS011;44845;51.444;7.460;2022-11-20T06:10:57;12.10;;;7.90;;
59054;SDS011;44845;51.444;7.460;2022-11-20T06:13:22;13.43;;;8.25;;
59054;SDS011;44845;51.444;7.460;2022-11-20T06:15:51;11.18;;;7.85;;
59054;SDS011;44845;51.444;7.460;2022-11-20T06:18:17;12.15;;;8.35;;
59054;SDS011;44845;51.444;7.460;2022-11-20T06:20:43;12.85;;;8.38;;
59054;SDS011;44845;51.444;7.460;2022-11-20T06:23:08;12.35;;;8.20;;
59054;SDS011;44845;51.444;7.460;2022-11-20T06:25:37;12.32;;;8.43;;
59054;SDS011;44845;51.444;7.460;2022-11-20T06:28:03;14.13;;;9.27;;
59054;SDS011;44845;51.444;7.460;2022-11-20T06:30:28;12.70;;;8.02;;
59054;SDS011;44845;51.444;7.460;2022-11-20T06:32:54;13.65;;;9.25;;
59054;SDS011;44845;51.444;7.460;2022-11-20T06:35:19;13.52;;;8.77;;
59054;SDS011;44845;51.444;7.460;2022-11-20T06:37:45;14.63;;;8.95;;
59054;SDS011;44845;51.444;7.460;2022-11-20T06:40:10;16.58;;;8.63;;
59054;SDS011;44845;51.444;7.460;2022-11-20T06:42:36;14.13;;;8.73;;
59054;SDS011;44845;51.444;7.460;2022-11-20T06:45:02;12.77;;;8.60;;
59054;SDS011;44845;51.444;7.460;2022-11-20T06:47:27;13.30;;;9.07;;
59054;SDS011;44845;51.444;7.460;2022-11-20T06:49:52;14.40;;;9.10;;
59054;SDS011;44845;51.444;7.460;2022-11-20T06:52:18;14.43;;;9.02;;
59054;SDS011;44845;51.444;7.460;2022-11-20T06:54:44;15.40;;;10.15;;
59054;SDS011;44845;51.444;7.460;2022-11-20T06:57:09;14.05;;;9.18;;
59054;SDS011;44845;51.444;7.460;2022-11-20T06:59:34;17.80;;;10.75;;
59054;SDS011;44845;51.444;7.460;2022-11-20T07:02:00;21.15;;;11.25;;
59054;SDS011;44845;51.444;7.460;2022-11-20T07:04:25;15.80;;;9.90;;
59054;SDS011;44845;51.444;7.460;2022-11-20T07:06:50;13.60;;;9.15;;
59054;SDS011;44845;51.444;7.460;2022-11-20T07:09:16;13.73;;;9.15;;
59054;SDS011;44845;51.444;7.460;2022-11-20T07:11:41;15.88;;;9.70;;
59054;SDS011;44845;51.444;7.460;2022-11-20T07:14:06;15.45;;;9.52;;
59054;SDS011;44845;51.444;7.460;2022-11-20T07:16:32;14.93;;;9.27;;
59054;SDS011;44845;51.444;7.460;2022-11-20T07:18:57;15.32;;;9.90;;
59054;SDS011;44845;51.444;7.460;2022-11-20T07:21:22;15.65;;;9.65;;
59054;SDS011;44845;51.444;7.460;2022-11-20T07:23:48;14.77;;;9.27;;
59054;SDS011;44845;51.444;7.460;2022-11-20T07:26:13;18.13;;;10.18;;
59054;SDS011;44845;51.444;7.460;2022-11-20T07:28:39;14.85;;;9.43;;
59054;SDS011;44845;51.444;7.460;2022-11-20T07:31:04;14.30;;;8.77;;
59054;SDS011;44845;51.444;7.460;2022-11-20T07:33:31;16.15;;;9.77;;
59054;SDS011;44845;51.444;7.460;2022-11-20T07:35:58;15.45;;;9.10;;
59054;SDS011;44845;51.444;7.460;2022-11-20T07:38:24;14.55;;;8.95;;
59054;SDS011;44845;51.444;7.460;2022-11-20T07:40:53;13.20;;;8.98;;
59054;SDS011;44845;51.444;7.460;2022-11-20T07:43:20;12.63;;;8.55;;
59054;SDS011;44845;51.444;7.460;2022-11-20T07:45:45;15.07;;;8.38;;
59054;SDS011;44845;51.444;7.460;2022-11-20T07:48:10;13.63;;;8.95;;
59054;SDS011;44845;51.444;7.460;2022-11-20T07:50:36;15.98;;;8.65;;
59054;SDS011;44845;51.444;7.460;2022-11-20T07:53:04;12.65;;;8.50;;
59054;SDS011;44845;51.444;7.460;2022-11-20T07:55:30;14.02;;;9.30;;
59054;SDS011;44845;51.444;7.460;2022-11-20T07:57:56;14.77;;;9.30;;
59054;SDS011;44845;51.444;7.460;2022-11-20T08:00:22;13.60;;;8.95;;
59054;SDS011;44845;51.444;7.460;2022-11-20T08:02:48;14.77;;;8.98;;
59054;SDS011;44845;51.444;7.460;2022-11-20T08:05:13;14.15;;;8.85;;
59054;SDS011;44845;51.444;7.460;2022-11-20T08:07:39;13.80;;;8.18;;
59054;SDS011;44845;51.444;7.460;2022-11-20T08:10:06;14.57;;;8.27;;
59054;SDS011;44845;51.444;7.460;2022-11-20T08:12:32;13.50;;;8.32;;
59054;SDS011;44845;51.444;7.460;2022-11-20T08:15:16;11.47;;;7.27;;
59054;SDS011;44845;51.444;7.460;2022-11-20T08:17:41;14.40;;;8.32;;
59054;SDS011;44845;51.444;7.460;2022-11-20T08:20:07;11.80;;;7.75;;
59054;SDS011;44845;51.444;7.460;2022-11-20T08:22:33;11.45;;;7.50;;
59054;SDS011;44845;51.444;7.460;2022-11-20T08:24:58;12.05;;;7.88;;
59054;SDS011;44845;51.444;7.460;2022-11-20T08:27:23;12.05;;;7.82;;
59054;SDS011;44845;51.444;7.460;2022-11-20T08:29:49;12.35;;;7.15;;
59054;SDS011;44845;51.444;7.460;2022-11-20T08:32:14;10.80;;;7.35;;
59054;SDS011;44845;51.444;7.460;2022-11-20T08:34:39;9.55;;;6.95;;
59054;SDS011;44845;51.444;7.460;2022-11-20T08:37:05;10.20;;;7.53;;
59054;SDS011;44845;51.444;7.460;2022-11-20T08:39:30;11.80;;;7.90;;
59054;SDS011;44845;51.444;7.460;2022-11-20T08:41:56;13.93;;;9.07;;
59054;SDS011;44845;51.444;7.460;2022-11-20T08:44:21;12.23;;;8.02;;
59054;SDS011;44845;51.444;7.460;2022-11-20T08:46:47;13.50;;;8.05;;
59054;SDS011;44845;51.444;7.460;2022-11-20T08:49:14;12.25;;;7.70;;
59054;SDS011;44845;51.444;7.460;2022-11-20T08:51:40;14.77;;;8.35;;
59054;SDS011;44845;51.444;7.460;2022-11-20T08:54:06;15.27;;;8.73;;
59054;SDS011;44845;51.444;7.460;2022-11-20T08:56:31;13.35;;;8.82;;
59054;SDS011;44845;51.444;7.460;2022-11-20T08:58:57;13.18;;;8.85;;
59054;SDS011;44845;51.444;7.460;2022-11-20T09:01:24;17.55;;;8.80;;
59054;SDS011;44845;51.444;7.460;2022-11-20T09:03:50;12.57;;;8.45;;
59054;SDS011;44845;51.444;7.460;2022-11-20T09:06:15;17.27;;;8.85;;
59054;SDS011;44845;51.444;7.460;2022-11-20T09:08:41;12.27;;;7.90;;
59054;SDS011;44845;51.444;7.460;2022-11-20T09:11:06;18.25;;;12.13;;
59054;SDS011;44845;51.444;7.460;2022-11-20T09:13:33;18.27;;;10.25;;
59054;SDS011;44845;51.444;7.460;2022-11-20T09:16:01;15.35;;;9.38;;
59054;SDS011;44845;51.444;7.460;2022-11-20T09:18:28;15.45;;;9.43;;
59054;SDS011;44845;51.444;7.460;2022-11-20T09:20:58;16.17;;;9.40;;
59054;SDS011;44845;51.444;7.460;2022-11-20T09:23:25;13.40;;;9.13;;
59054;SDS011;44845;51.444;7.460;2022-11-20T09:25:51;15.80;;;9.93;;
59054;SDS011;44845;51.444;7.460;2022-11-20T09:28:17;17.75;;;9.77;;
59054;SDS011;44845;51.444;7.460;2022-11-20T09:30:43;18.13;;;10.68;;
59054;SDS011;44845;51.444;7.460;2022-11-20T09:33:09;23.38;;;10.27;;
59054;SDS011;44845;51.444;7.460;2022-11-20T09:35:34;16.38;;;10.57;;
59054;SDS011;44845;51.444;7.460;2022-11-20T09:38:04;14.88;;;10.10;;
59054;SDS011;44845;51.444;7.460;2022-11-20T09:40:30;17.05;;;10.68;;
59054;SDS011;44845;51.444;7.460;2022-11-20T09:56:36;15.85;;;10.13;;
59054;SDS011;44845;51.444;7.460;2022-11-20T09:59:06;18.52;;;11.05;;
59054;SDS011;44845;51.444;7.460;2022-11-20T10:01:39;18.20;;;11.32;;
59054;SDS011;44845;51.444;7.460;2022-11-20T10:06:40;17.83;;;11.73;;
59054;SDS011;44845;51.444;7.460;2022-11-20T10:09:25;18.85;;;12.00;;
59054;SDS011;44845;51.444;7.460;2022-11-20T10:25:44;18.25;;;11.95;;
59054;SDS011;44845;51.444;7.460;2022-11-20T10:31:02;15.40;;;9.90;;
59054;SDS011;44845;51.444;7.460;2022-11-20T10:33:31;13.40;;;9.27;;
59054;SDS011;44845;51.444;7.460;2022-11-20T10:38:45;13.98;;;9.20;;
59054;SDS011;44845;51.444;7.460;2022-11-20T10:41:16;14.18;;;10.57;;
59054;SDS011;44845;51.444;7.460;2022-11-20T10:43:53;13.85;;;8.07;;
59054;SDS011;44845;51.444;7.460;2022-11-20T10:46:26;11.73;;;7.85;;
59054;SDS011;44845;51.444;7.460;2022-11-20T10:49:11;13.40;;;7.75;;
59054;SDS011;44845;51.444;7.460;2022-11-20T10:51:52;11.90;;;8.43;;
59054;SDS011;44845;51.444;7.460;2022-11-20T10:57:06;13.10;;;8.13;;
59054;SDS011;44845;51.444;7.460;2022-11-20T11:02:23;11.10;;;7.97;;
59054;SDS011;44845;51.444;7.460;2022-11-20T11:04:55;12.60;;;8.30;;
59054;SDS011;44845;51.444;7.460;2022-11-20T11:07:23;11.73;;;8.60;;
59054;SDS011;44845;51.444;7.460;2022-11-20T11:09:55;10.60;;;6.82;;
59054;SDS011;44845;51.444;7.460;2022-11-20T11:12:22;11.45;;;7.43;;
59054;SDS011;44845;51.444;7.460;2022-11-20T11:14:51;10.25;;;7.28;;
59054;SDS011;44845;51.444;7.460;2022-11-20T11:17:25;12.55;;;7.93;;
59054;SDS011;44845;51.444;7.460;2022-11-20T11:20:00;11.73;;;7.75;;
59054;SDS011;44845;51.444;7.460;2022-11-20T11:22:32;10.40;;;7.22;;
59054;SDS011;44845;51.444;7.460;2022-11-20T11:24:59;16.33;;;8.80;;
59054;SDS011;44845;51.444;7.460;2022-11-20T11:27:25;13.57;;;7.60;;
59054;SDS011;44845;51.444;7.460;2022-11-20T11:29:50;8.65;;;6.43;;
59054;SDS011;44845;51.444;7.460;2022-11-20T11:32:28;10.40;;;7.20;;
59054;SDS011;44845;51.444;7.460;2022-11-20T11:35:04;10.35;;;7.30;;
59054;SDS011;44845;51.444;7.460;2022-11-20T11:37:35;11.82;;;7.20;;
59054;SDS011;44845;51.444;7.460;2022-11-20T11:40:05;10.20;;;7.70;;
59054;SDS011;44845;51.444;7.460;2022-11-20T11:42:35;10.98;;;7.15;;
59054;SDS011;44845;51.444;7.460;2022-11-20T11:45:11;12.30;;;7.35;;
59054;SDS011;44845;51.444;7.460;2022-11-20T11:50:26;13.32;;;8.65;;
59054;SDS011;44845;51.444;7.460;2022-11-20T11:52:58;15.90;;;10.23;;
59054;SDS011;44845;51.444;7.460;2022-11-20T11:55:35;16.95;;;11.60;;
59054;SDS011;44845;51.444;7.460;2022-11-20T11:58:05;14.80;;;9.60;;
59054;SDS011;44845;51.444;7.460;2022-11-20T12:00:31;12.85;;;8.90;;
59054;SDS011;44845;51.444;7.460;2022-11-20T12:03:03;11.20;;;8.25;;
59054;SDS011;44845;51.444;7.460;2022-11-20T12:08:31;11.20;;;7.78;;
59054;SDS011;44845;51.444;7.460;2022-11-20T12:16:23;12.65;;;8.32;;
59054;SDS011;44845;51.444;7.460;2022-11-20T12:18:50;12.10;;;8.52;;
59054;SDS011;44845;51.444;7.460;2022-11-20T12:26:35;10.25;;;7.47;;
59054;SDS011;44845;51.444;7.460;2022-11-20T12:40:15;11.93;;;7.00;;
59054;SDS011;44845;51.444;7.460;2022-11-20T12:42:46;10.55;;;7.32;;
59054;SDS011;44845;51.444;7.460;2022-11-20T12:48:41;11.15;;;7.82;;
59054;SDS011;44845;51.444;7.460;2022-11-20T12:51:19;12.85;;;8.18;;
59054;SDS011;44845;51.444;7.460;2022-11-20T12:56:26;14.68;;;9.18;;
59054;SDS011;44845;51.444;7.460;2022-11-20T13:01:51;11.07;;;7.53;;
59054;SDS011;44845;51.444;7.460;2022-11-20T13:07:08;13.57;;;7.97;;
59054;SDS011;44845;51.444;7.460;2022-11-20T13:09:37;14.43;;;8.40;;
59054;SDS011;44845;51.444;7.460;2022-11-20T13:12:16;13.73;;;8.40;;
59054;SDS011;44845;51.444;7.460;2022-11-20T13:14:54;12.73;;;8.63;;
59054;SDS011;44845;51.444;7.460;2022-11-20T13:20:34;14.30;;;9.13;;
59054;SDS011;44845;51.444;7.460;2022-11-20T13:23:01;16.17;;;10.63;;
59054;SDS011;44845;51.444;7.460;2022-11-20T13:25:27;14.13;;;8.55;;
59054;SDS011;44845;51.444;7.460;2022-11-20T13:28:04;14.90;;;9.45;;
59054;SDS011;44845;51.444;7.460;2022-11-20T13:30:53;12.77;;;9.43;;
59054;SDS011;44845;51.444;7.460;2022-11-20T13:33:25;13.18;;;9.18;;
59054;SDS011;44845;51.444;7.460;2022-11-20T13:36:06;15.32;;;9.50;;
59054;SDS011;44845;51.444;7.460;2022-11-20T13:38:51;14.52;;;9.77;;
59054;SDS011;44845;51.444;7.460;2022-11-20T15:14:04;18.33;;;11.50;;
59054;SDS011;44845;51.444;7.460;2022-11-20T15:16:31;18.92;;;11.05;;
59054;SDS011;44845;51.444;7.460;2022-11-20T15:18:57;20.05;;;11.35;;
59054;SDS011;44845;51.444;7.460;2022-11-20T15:21:22;17.52;;;11.80;;
59054;SDS011;44845;51.444;7.460;2022-11-20T15:23:48;17.42;;;11.85;;
59054;SDS011;44845;51.444;7.460;2022-11-20T15:26:15;20.45;;;11.93;;
59054;SDS011;44845;51.444;7.460;2022-11-20T15:28:49;18.25;;;11.82;;
59054;SDS011;44845;51.444;7.460;2022-11-20T15:31:16;19.83;;;12.20;;
59054;SDS011;44845;51.444;7.460;2022-11-20T15:33:43;19.48;;;11.88;;
59054;SDS011;44845;51.444;7.460;2022-11-20T15:36:09;20.20;;;12.25;;
59054;SDS011;44845;51.444;7.460;2022-11-20T15:38:35;19.90;;;11.73;;
59054;SDS011;44845;51.444;7.460;2022-11-20T15:41:00;21.85;;;12.57;;
59054;SDS011;44845;51.444;7.460;2022-11-20T15:43:26;21.63;;;13.27;;
59054;SDS011;44845;51.444;7.460;2022-11-20T15:48:44;21.50;;;12.32;;
59054;SDS011;44845;51.444;7.460;2022-11-20T15:53:36;23.08;;;13.55;;
59054;SDS011;44845;51.444;7.460;2022-11-20T15:56:05;23.42;;;13.80;;
59054;SDS011;44845;51.444;7.460;2022-11-20T15:58:34;20.17;;;12.82;;
59054;SDS011;44845;51.444;7.460;2022-11-20T16:00:59;23.55;;;13.82;;
59054;SDS011;44845;51.444;7.460;2022-11-20T16:03:24;22.35;;;14.10;;
59054;SDS011;44845;51.444;7.460;2022-11-20T16:05:50;22.33;;;14.60;;
59054;SDS011;44845;51.444;7.460;2022-11-20T16:08:15;25.25;;;14.38;;
59054;SDS011;44845;51.444;7.460;2022-11-20T16:10:41;22.42;;;14.65;;
59054;SDS011;44845;51.444;7.460;2022-11-20T16:13:13;24.23;;;14.70;;
59054;SDS011;44845;51.444;7.460;2022-11-20T16:15:59;25.60;;;14.68;;
59054;SDS011;44845;51.444;7.460;2022-11-20T16:18:30;23.75;;;14.88;;
59054;SDS011;44845;51.444;7.460;2022-11-20T16:20:56;26.13;;;15.68;;
59054;SDS011;44845;51.444;7.460;2022-11-20T16:23:22;26.13;;;15.63;;
59054;SDS011;44845;51.444;7.460;2022-11-20T16:25:48;28.15;;;14.93;;
59054;SDS011;44845;51.444;7.460;2022-11-20T16:28:14;28.88;;;15.38;;
59054;SDS011;44845;51.444;7.460;2022-11-20T16:30:40;27.15;;;15.15;;
59054;SDS011;44845;51.444;7.460;2022-11-20T16:33:09;28.13;;;16.60;;
59054;SDS011;44845;51.444;7.460;2022-11-20T16:35:36;28.13;;;15.75;;
59054;SDS011;44845;51.444;7.460;2022-11-20T16:38:02;29.27;;;15.50;;
59054;SDS011;44845;51.444;7.460;2022-11-20T16:40:28;23.55;;;14.70;;
59054;SDS011;44845;51.444;7.460;2022-11-20T16:42:53;26.45;;;15.45;;
59054;SDS011;44845;51.444;7.460;2022-11-20T16:45:18;26.58;;;15.50;;
59054;SDS011;44845;51.444;7.460;2022-11-20T16:47:44;29.40;;;15.30;;
59054;SDS011;44845;51.444;7.460;2022-11-20T16:50:09;27.92;;;15.90;;
59054;SDS011;44845;51.444;7.460;2022-11-20T16:52:35;27.30;;;15.13;;
59054;SDS011;44845;51.444;7.460;2022-11-20T16:55:00;31.30;;;15.00;;
59054;SDS011;44845;51.444;7.460;2022-11-20T16:57:29;25.30;;;14.70;;
59054;SDS011;44845;51.444;7.460;2022-11-20T16:59:57;26.33;;;14.88;;
59054;SDS011;44845;51.444;7.460;2022-11-20T17:02:23;26.30;;;14.52;;
59054;SDS011;44845;51.444;7.460;2022-11-20T17:04:49;24.67;;;14.32;;
59054;SDS011;44845;51.444;7.460;2022-11-20T17:07:15;27.75;;;15.40;;
59054;SDS011;44845;51.444;7.460;2022-11-20T17:09:40;24.33;;;13.80;;
59054;SDS011;44845;51.444;7.460;2022-11-20T17:12:06;25.17;;;13.80;;
59054;SDS011;44845;51.444;7.460;2022-11-20T17:14:31;26.30;;;15.15;;
59054;SDS011;44845;51.444;7.460;2022-11-20T17:16:56;26.13;;;14.15;;
59054;SDS011;44845;51.444;7.460;2022-11-20T17:19:22;23.05;;;13.32;;
59054;SDS011;44845;51.444;7.460;2022-11-20T17:21:47;24.63;;;13.98;;
59054;SDS011;44845;51.444;7.460;2022-11-20T17:24:14;25.25;;;12.30;;
59054;SDS011;44845;51.444;7.460;2022-11-20T17:26:42;21.77;;;12.98;;
59054;SDS011;44845;51.444;7.460;2022-11-20T17:29:12;22.63;;;12.10;;
59054;SDS011;44845;51.444;7.460;2022-11-20T17:31:39;21.50;;;11.95;;
59054;SDS011;44845;51.444;7.460;2022-11-20T17:34:06;21.13;;;11.95;;
59054;SDS011;44845;51.444;7.460;2022-11-20T17:36:34;20.98;;;12.32;;
59054;SDS011;44845;51.444;7.460;2022-11-20T17:39:00;19.92;;;11.57;;
59054;SDS011;44845;51.444;7.460;2022-11-20T17:41:26;20.02;;;11.43;;